createdAt,value
2018-11-26T00:01:27.055Z,5.20
2018-11-26T00:03:54.782Z,5.10
2018-11-26T00:06:22.602Z,5.20
2018-11-26T00:08:50.279Z,5.30
2018-11-26T00:11:28.306Z,5.20
2018-11-26T00:13:56.308Z,5.10
2018-11-26T00:16:24.037Z,5.10
2018-11-26T00:18:51.744Z,5.10
2018-11-26T00:21:19.471Z,5.00
2018-11-26T00:23:47.222Z,5.00
2018-11-26T00:26:15.017Z,5.00
2018-11-26T00:28:42.745Z,5.10
2018-11-26T00:31:10.464Z,5.00
2018-11-26T00:33:38.169Z,5.00
2018-11-26T00:36:06.223Z,5.00
2018-11-26T00:38:33.911Z,5.00
2018-11-26T00:41:01.643Z,5.10
2018-11-26T00:43:29.427Z,5.00
2018-11-26T00:45:57.178Z,5.00
2018-11-26T00:48:24.858Z,5.00
2018-11-26T00:50:52.562Z,5.10
2018-11-26T00:53:20.257Z,5.00
2018-11-26T00:55:47.946Z,5.10
2018-11-26T00:58:15.674Z,5.10
2018-11-26T01:00:43.392Z,5.10
2018-11-26T01:03:11.096Z,5.10
2018-11-26T01:05:39.821Z,5.10
2018-11-26T01:08:07.717Z,5.10
2018-11-26T01:10:35.438Z,5.20
2018-11-26T01:13:03.213Z,5.20
2018-11-26T01:15:30.960Z,5.10
2018-11-26T01:17:58.686Z,5.10
2018-11-26T01:20:26.438Z,5.10
2018-11-26T01:22:54.162Z,5.10
2018-11-26T01:25:21.846Z,5.10
2018-11-26T01:27:49.597Z,5.10
2018-11-26T01:30:17.384Z,5.10
2018-11-26T01:32:45.114Z,5.10
2018-11-26T01:35:12.769Z,5.10
2018-11-26T01:37:40.559Z,5.10
2018-11-26T01:40:12.829Z,5.10
2018-11-26T01:42:41.390Z,5.10
2018-11-26T01:45:09.737Z,5.20
2018-11-26T01:47:37.549Z,5.10
2018-11-26T01:50:05.651Z,5.10
2018-11-26T01:52:33.345Z,5.10
2018-11-26T01:55:01.078Z,5.20
2018-11-26T01:57:28.769Z,5.20
2018-11-26T01:59:56.496Z,5.20
2018-11-26T02:02:24.182Z,5.20
2018-11-26T02:04:51.877Z,5.30
2018-11-26T02:07:19.677Z,5.30
2018-11-26T02:09:47.494Z,5.30
2018-11-26T02:12:15.270Z,5.30
2018-11-26T02:14:42.954Z,5.30
2018-11-26T02:17:10.661Z,5.30
2018-11-26T02:19:38.448Z,5.30
2018-11-26T02:22:06.246Z,5.30
2018-11-26T02:24:33.987Z,5.30
2018-11-26T02:27:01.701Z,5.40
2018-11-26T02:29:29.426Z,5.40
2018-11-26T02:31:57.126Z,5.40
2018-11-26T02:34:24.867Z,5.40
2018-11-26T02:36:52.678Z,5.40
2018-11-26T02:39:20.376Z,5.40
2018-11-26T02:41:48.093Z,5.40
2018-11-26T02:44:15.765Z,5.40
2018-11-26T02:46:43.478Z,5.40
2018-11-26T02:49:11.170Z,5.30
2018-11-26T02:51:38.936Z,5.30
2018-11-26T02:54:06.655Z,5.20
2018-11-26T02:56:34.370Z,5.20
2018-11-26T02:59:02.045Z,5.20
2018-11-26T03:01:29.750Z,5.20
2018-11-26T03:03:57.552Z,5.10
2018-11-26T03:06:25.261Z,5.10
2018-11-26T03:08:53.041Z,5.20
2018-11-26T03:11:20.721Z,5.20
2018-11-26T03:13:48.498Z,5.10
2018-11-26T03:16:16.188Z,5.10
2018-11-26T03:18:43.907Z,5.10
2018-11-26T03:21:11.646Z,5.20
2018-11-26T03:23:46.137Z,5.10
2018-11-26T03:26:13.843Z,5.20
2018-11-26T03:28:41.532Z,5.30
2018-11-26T03:31:09.289Z,5.30
2018-11-26T03:33:37.072Z,5.30
2018-11-26T03:36:04.897Z,5.30
2018-11-26T03:39:06.605Z,5.30
2018-11-26T03:41:34.347Z,5.30
2018-11-26T03:44:02.122Z,5.20
2018-11-26T03:46:29.800Z,5.20
2018-11-26T03:48:57.482Z,5.30
2018-11-26T03:51:25.193Z,5.30
2018-11-26T03:53:52.868Z,5.30
2018-11-26T03:56:20.579Z,5.30
2018-11-26T03:58:48.280Z,5.20
2018-11-26T04:01:16.002Z,5.30
2018-11-26T04:03:43.669Z,5.30
2018-11-26T04:06:11.358Z,5.20
2018-11-26T04:08:39.059Z,5.20
2018-11-26T04:11:06.726Z,5.10
2018-11-26T04:13:34.395Z,5.20
2018-11-26T04:16:02.098Z,5.20
2018-11-26T04:18:29.785Z,5.20
2018-11-26T04:20:57.454Z,5.10
2018-11-26T04:23:25.164Z,5.10
2018-11-26T04:25:52.836Z,5.20
2018-11-26T04:28:20.532Z,5.20
2018-11-26T04:30:48.230Z,5.20
2018-11-26T04:33:15.902Z,5.20
2018-11-26T04:35:43.650Z,5.10
2018-11-26T04:38:11.341Z,5.20
2018-11-26T04:40:39.023Z,5.20
2018-11-26T04:43:06.714Z,5.20
2018-11-26T04:45:34.374Z,5.20
2018-11-26T04:48:02.051Z,5.20
2018-11-26T04:50:29.741Z,5.10
2018-11-26T04:52:57.424Z,5.00
2018-11-26T04:55:25.107Z,5.10
2018-11-26T04:57:52.803Z,5.00
2018-11-26T05:00:20.507Z,5.00
2018-11-26T05:02:48.181Z,5.00
2018-11-26T05:05:15.889Z,4.90
2018-11-26T05:07:43.591Z,4.90
2018-11-26T05:10:12.461Z,4.90
2018-11-26T05:12:40.133Z,5.10
2018-11-26T05:15:09.482Z,5.00
2018-11-26T05:17:37.174Z,5.00
2018-11-26T05:20:07.250Z,4.90
2018-11-26T05:22:34.910Z,4.90
2018-11-26T05:25:02.598Z,5.00
2018-11-26T05:27:30.268Z,5.00
2018-11-26T05:29:57.984Z,5.00
2018-11-26T05:32:25.707Z,5.00
2018-11-26T05:34:53.354Z,5.10
2018-11-26T05:37:21.072Z,5.00
2018-11-26T05:39:48.778Z,4.90
2018-11-26T05:42:16.466Z,5.00
2018-11-26T05:44:44.162Z,5.00
2018-11-26T05:47:11.817Z,5.00
2018-11-26T05:49:39.570Z,5.00
2018-11-26T05:52:07.383Z,5.10
2018-11-26T05:54:35.113Z,5.10
2018-11-26T05:57:02.813Z,5.10
2018-11-26T05:59:30.539Z,5.10
2018-11-26T06:01:58.282Z,5.20
2018-11-26T06:04:25.966Z,5.20
2018-11-26T06:06:53.647Z,5.20
2018-11-26T06:09:21.382Z,5.20
2018-11-26T06:11:49.056Z,5.20
2018-11-26T06:14:16.813Z,5.20
2018-11-26T06:16:44.478Z,5.20
2018-11-26T06:19:12.189Z,5.30
2018-11-26T06:21:39.858Z,5.30
2018-11-26T06:24:07.572Z,5.30
2018-11-26T06:26:35.258Z,5.30
2018-11-26T06:29:03.015Z,5.40
2018-11-26T06:31:30.696Z,5.30
2018-11-26T06:33:58.418Z,5.30
2018-11-26T06:36:26.088Z,5.30
2018-11-26T06:38:53.776Z,5.30
2018-11-26T06:41:21.487Z,5.20
2018-11-26T06:43:49.160Z,5.30
2018-11-26T06:46:16.841Z,5.30
2018-11-26T06:48:45.364Z,5.20
2018-11-26T06:51:12.250Z,5.10
2018-11-26T06:53:39.943Z,5.10
2018-11-26T06:56:07.641Z,5.10
2018-11-26T06:58:35.333Z,5.10
2018-11-26T07:01:03.056Z,5.00
2018-11-26T07:03:30.796Z,5.10
2018-11-26T07:05:58.494Z,5.10
2018-11-26T07:08:26.145Z,5.10
2018-11-26T07:10:53.850Z,5.00
2018-11-26T07:13:21.556Z,5.10
2018-11-26T07:15:49.241Z,5.00
2018-11-26T07:18:16.979Z,5.00
2018-11-26T07:20:44.642Z,5.00
2018-11-26T07:23:12.326Z,5.10
2018-11-26T07:25:39.988Z,5.00
2018-11-26T07:28:08.179Z,5.00
2018-11-26T07:30:35.889Z,5.00
2018-11-26T07:33:04.338Z,5.00
2018-11-26T07:35:32.351Z,5.10
2018-11-26T07:38:00.141Z,5.20
2018-11-26T07:40:27.854Z,5.20
2018-11-26T07:43:01.181Z,5.20
2018-11-26T07:45:28.932Z,5.30
2018-11-26T07:47:56.642Z,5.30
2018-11-26T07:50:24.354Z,5.20
2018-11-26T07:52:52.052Z,5.20
2018-11-26T07:55:20.568Z,5.10
2018-11-26T07:57:48.336Z,5.10
2018-11-26T08:00:17.086Z,5.10
2018-11-26T08:02:45.146Z,5.10
2018-11-26T08:05:14.905Z,5.10
2018-11-26T08:07:42.592Z,5.10
2018-11-26T08:10:15.381Z,5.10
2018-11-26T08:12:43.690Z,5.10
2018-11-26T08:15:13.562Z,5.10
2018-11-26T08:17:41.427Z,5.10
2018-11-26T08:20:09.570Z,5.20
2018-11-26T08:22:37.317Z,5.20
2018-11-26T08:25:07.836Z,5.30
2018-11-26T08:27:35.578Z,5.30
2018-11-26T08:30:04.029Z,5.30
2018-11-26T08:32:34.104Z,5.40
2018-11-26T08:34:59.479Z,5.40
2018-11-26T08:37:33.367Z,5.50
2018-11-26T08:40:07.085Z,5.50
2018-11-26T08:42:45.411Z,5.50
2018-11-26T08:45:18.663Z,5.60
2018-11-26T08:47:51.908Z,5.60
2018-11-26T08:50:19.635Z,5.60
2018-11-26T08:52:47.342Z,5.60
2018-11-26T08:55:15.061Z,5.60
2018-11-26T08:57:42.743Z,5.70
2018-11-26T09:00:11.107Z,5.60
2018-11-26T09:02:44.863Z,5.70
2018-11-26T09:06:21.074Z,5.70
2018-11-26T09:08:48.839Z,5.70
2018-11-26T09:11:16.514Z,5.70
2018-11-26T09:13:44.195Z,5.70
2018-11-26T09:16:11.897Z,5.80
2018-11-26T09:18:39.587Z,5.80
2018-11-26T09:21:07.290Z,5.80
2018-11-26T09:23:35.146Z,5.70
2018-11-26T09:26:02.882Z,5.80
2018-11-26T09:28:30.570Z,5.90
2018-11-26T09:30:58.241Z,5.90
2018-11-26T09:33:26.008Z,5.80
2018-11-26T09:35:53.709Z,5.80
2018-11-26T09:38:21.403Z,5.80
2018-11-26T09:40:49.138Z,5.90
2018-11-26T09:43:16.830Z,5.90
2018-11-26T09:45:44.506Z,5.90
2018-11-26T09:48:12.221Z,5.90
2018-11-26T09:50:39.947Z,5.90
2018-11-26T09:53:07.685Z,5.90
2018-11-26T09:55:35.419Z,5.90
2018-11-26T09:58:03.175Z,6.00
2018-11-26T10:00:30.865Z,6.00
2018-11-26T10:02:58.569Z,6.00
2018-11-26T10:05:26.422Z,6.00
2018-11-26T10:07:54.100Z,6.10
2018-11-26T10:10:21.816Z,6.10
2018-11-26T10:12:49.523Z,6.10
2018-11-26T10:15:20.163Z,6.10
2018-11-26T10:17:47.994Z,6.10
2018-11-26T10:20:15.798Z,6.10
2018-11-26T10:22:44.288Z,6.10
2018-11-26T10:25:13.942Z,6.10
2018-11-26T10:27:41.665Z,6.20
2018-11-26T10:30:12.374Z,6.20
2018-11-26T10:32:40.322Z,6.20
2018-11-26T10:35:11.984Z,6.30
2018-11-26T10:37:39.703Z,6.30
2018-11-26T10:40:12.184Z,6.30
2018-11-26T10:42:39.919Z,6.30
2018-11-26T10:45:09.460Z,6.30
2018-11-26T10:47:37.166Z,6.20
2018-11-26T10:50:06.219Z,6.30
2018-11-26T10:52:33.933Z,6.30
2018-11-26T10:55:01.665Z,6.30
2018-11-26T10:57:29.368Z,6.40
2018-11-26T10:59:57.046Z,6.30
2018-11-26T11:02:30.291Z,6.30
2018-11-26T11:04:58.023Z,6.30
2018-11-26T11:07:25.735Z,6.30
2018-11-26T11:09:53.423Z,6.30
2018-11-26T11:12:21.144Z,6.30
2018-11-26T11:14:48.911Z,6.10
2018-11-26T11:17:16.598Z,6.20
2018-11-26T11:19:44.299Z,6.10
2018-11-26T11:22:12.014Z,6.10
2018-11-26T11:24:39.694Z,6.20
2018-11-26T11:27:07.382Z,6.20
2018-11-26T11:29:35.155Z,6.20
2018-11-26T11:32:02.898Z,6.10
2018-11-26T11:34:30.603Z,6.10
2018-11-26T11:36:58.310Z,6.20
2018-11-26T11:39:26.072Z,6.10
2018-11-26T11:41:53.780Z,6.20
2018-11-26T11:44:24.496Z,6.00
2018-11-26T11:46:52.224Z,6.00
2018-11-26T11:49:19.976Z,6.10
2018-11-26T11:51:47.652Z,6.10
2018-11-26T11:54:15.344Z,5.90
2018-11-26T11:56:43.060Z,6.00
2018-11-26T11:59:10.779Z,6.00
2018-11-26T12:01:38.484Z,6.00
2018-11-26T12:04:06.601Z,5.90
2018-11-26T12:06:34.359Z,5.90
2018-11-26T12:09:02.058Z,5.90
2018-11-26T12:11:29.760Z,5.90
2018-11-26T12:13:57.523Z,5.90
2018-11-26T12:16:25.211Z,6.00
2018-11-26T12:18:52.914Z,5.90
2018-11-26T12:21:20.625Z,5.90
2018-11-26T12:23:48.305Z,5.90
2018-11-26T12:26:16.007Z,6.00
2018-11-26T12:28:43.729Z,5.90
2018-11-26T12:31:11.449Z,5.90
2018-11-26T12:33:39.146Z,5.80
2018-11-26T12:36:07.177Z,5.70
2018-11-26T12:38:35.833Z,5.60
2018-11-26T12:41:02.606Z,5.70
2018-11-26T12:43:30.309Z,5.60
2018-11-26T12:45:58.019Z,5.70
2018-11-26T12:48:25.724Z,5.60
2018-11-26T12:50:53.419Z,5.60
2018-11-26T12:53:21.143Z,5.70
2018-11-26T12:55:48.863Z,5.70
2018-11-26T12:58:16.569Z,5.70
2018-11-26T13:00:44.295Z,5.70
2018-11-26T13:03:12.795Z,5.80
2018-11-26T13:05:40.473Z,5.80
2018-11-26T13:08:08.676Z,5.80
2018-11-26T13:10:36.863Z,5.80
2018-11-26T13:13:05.062Z,5.90
2018-11-26T13:15:32.768Z,5.90
2018-11-26T13:18:00.456Z,6.00
2018-11-26T13:20:29.399Z,6.00
2018-11-26T13:22:57.182Z,6.00
2018-11-26T13:25:30.096Z,6.10
2018-11-26T13:28:01.182Z,6.10
2018-11-26T13:30:30.189Z,6.10
2018-11-26T13:32:59.175Z,6.00
2018-11-26T13:35:26.867Z,6.00
2018-11-26T13:37:54.648Z,5.90
2018-11-26T13:40:22.365Z,6.00
2018-11-26T13:42:50.639Z,6.00
2018-11-26T13:52:18.774Z,5.90
2018-11-26T13:54:46.459Z,5.80
2018-11-26T13:57:14.133Z,5.80
2018-11-26T13:59:41.852Z,5.80
2018-11-26T14:02:09.535Z,5.70
2018-11-26T14:04:37.226Z,5.70
2018-11-26T14:07:05.071Z,5.80
2018-11-26T14:09:32.834Z,5.80
2018-11-26T14:12:00.581Z,5.80
2018-11-26T14:14:28.338Z,5.80
2018-11-26T14:16:56.063Z,5.90
2018-11-26T14:19:23.849Z,5.80
2018-11-26T14:21:51.535Z,5.80
2018-11-26T14:24:19.268Z,5.80
2018-11-26T14:26:47.004Z,5.80
2018-11-26T14:29:14.752Z,5.70
2018-11-26T14:31:42.473Z,5.80
2018-11-26T14:34:10.184Z,5.80
2018-11-26T14:36:37.875Z,5.70
2018-11-26T14:39:07.292Z,5.70
2018-11-26T14:41:35.026Z,5.60
2018-11-26T14:44:02.866Z,5.70
2018-11-26T14:46:30.630Z,5.70
2018-11-26T14:48:58.339Z,5.70
2018-11-26T14:51:26.088Z,5.70
2018-11-26T14:53:53.776Z,5.60
2018-11-26T14:56:21.551Z,5.60
2018-11-26T14:58:49.318Z,5.60
2018-11-26T15:01:17.056Z,5.60
2018-11-26T15:03:44.726Z,5.50
2018-11-26T15:06:12.448Z,5.50
2018-11-26T15:08:40.176Z,5.50
2018-11-26T15:11:07.955Z,5.50
2018-11-26T15:13:35.648Z,5.60
2018-11-26T15:16:03.424Z,5.50
2018-11-26T15:18:31.223Z,5.50
2018-11-26T15:20:59.015Z,5.60
2018-11-26T15:23:26.703Z,5.50
2018-11-26T15:25:54.400Z,5.60
2018-11-26T15:28:22.136Z,5.50
2018-11-26T15:30:49.915Z,5.40
2018-11-26T15:33:17.696Z,5.40
2018-11-26T15:35:45.384Z,5.40
2018-11-26T15:38:13.088Z,5.40
2018-11-26T15:40:40.871Z,5.50
2018-11-26T15:43:08.657Z,5.40
2018-11-26T15:45:37.064Z,5.40
2018-11-26T15:48:07.535Z,5.40
2018-11-26T15:50:35.208Z,5.40
2018-11-26T15:53:02.908Z,5.40
2018-11-26T15:55:30.716Z,5.50
2018-11-26T15:57:58.500Z,5.50
2018-11-26T16:00:26.559Z,5.50
2018-11-26T16:02:54.428Z,5.50
2018-11-26T16:05:26.246Z,5.50
2018-11-26T16:07:56.331Z,5.50
2018-11-26T16:10:24.053Z,5.50
2018-11-26T16:12:53.551Z,5.60
2018-11-26T16:15:23.547Z,5.60
2018-11-26T16:17:51.649Z,5.60
2018-11-26T16:20:21.112Z,5.60
2018-11-26T16:22:48.946Z,5.60
2018-11-26T16:25:18.049Z,5.60
2018-11-26T16:27:45.851Z,5.60
2018-11-26T16:30:14.722Z,5.70
2018-11-26T16:32:45.041Z,5.70
2018-11-26T16:35:15.012Z,5.70
2018-11-26T16:37:42.813Z,5.70
2018-11-26T16:40:12.990Z,5.60
2018-11-26T16:42:40.755Z,5.50
2018-11-26T16:45:17.361Z,5.50
2018-11-26T16:47:46.524Z,5.50
2018-11-26T16:50:15.694Z,5.50
2018-11-26T16:52:43.440Z,5.40
2018-11-26T16:55:12.354Z,5.30
2018-11-26T16:57:40.095Z,5.30
2018-11-26T17:00:11.971Z,5.30
2018-11-26T17:02:39.673Z,5.30
2018-11-26T17:05:09.807Z,5.30
2018-11-26T17:07:37.587Z,5.30
2018-11-26T17:10:06.397Z,5.30
2018-11-26T17:12:34.094Z,5.40
2018-11-26T17:15:01.814Z,5.30
2018-11-26T17:17:29.595Z,5.30
2018-11-26T17:19:57.391Z,5.30
2018-11-26T17:22:25.151Z,5.30
2018-11-26T17:24:53.000Z,5.30
2018-11-26T17:27:20.724Z,5.20
2018-11-26T17:29:48.482Z,5.20
2018-11-26T17:32:16.282Z,5.20
2018-11-26T17:34:43.964Z,5.20
2018-11-26T17:37:11.647Z,5.20
2018-11-26T17:39:39.393Z,5.20
2018-11-26T17:42:07.142Z,5.10
2018-11-26T17:44:34.871Z,5.10
2018-11-26T17:47:02.622Z,5.10
2018-11-26T17:49:30.376Z,5.10
2018-11-26T17:51:58.135Z,5.10
2018-11-26T17:54:25.916Z,5.10
2018-11-26T17:56:53.642Z,5.10
2018-11-26T17:59:21.391Z,5.00
2018-11-26T18:01:49.267Z,5.00
2018-11-26T18:04:17.076Z,5.00
2018-11-26T18:06:47.474Z,4.90
2018-11-26T18:09:12.742Z,4.90
2018-11-26T18:11:40.534Z,4.90
2018-11-26T18:14:08.347Z,4.90
2018-11-26T18:16:36.128Z,4.90
2018-11-26T18:19:04.377Z,4.80
2018-11-26T18:21:32.078Z,4.80
2018-11-26T18:23:59.800Z,4.90
2018-11-26T18:26:27.662Z,4.80
2018-11-26T18:28:55.351Z,4.80
2018-11-26T18:31:23.111Z,4.80
2018-11-26T18:33:51.088Z,4.80
2018-11-26T18:36:18.841Z,4.80
2018-11-26T18:38:49.491Z,4.80
2018-11-26T18:41:18.220Z,4.80
2018-11-26T18:43:47.379Z,4.80
2018-11-26T18:46:16.019Z,4.80
2018-11-26T18:48:43.751Z,4.80
2018-11-26T18:51:11.496Z,4.70
2018-11-26T18:53:39.233Z,4.70
2018-11-26T18:56:07.154Z,4.70
2018-11-26T18:58:35.253Z,4.70
2018-11-26T19:01:03.091Z,4.70
2018-11-26T19:03:30.876Z,4.70
2018-11-26T19:05:58.582Z,4.70
2018-11-26T19:08:26.348Z,4.70
2018-11-26T19:10:59.693Z,4.70
2018-11-26T19:13:30.238Z,4.60
2018-11-26T19:16:06.794Z,4.70
2018-11-26T19:18:34.685Z,4.60
2018-11-26T19:21:02.472Z,4.50
2018-11-26T19:23:30.273Z,4.50
2018-11-26T19:25:58.650Z,4.40
2018-11-26T19:28:27.126Z,4.40
2018-11-26T19:30:54.881Z,4.30
2018-11-26T19:33:22.643Z,4.20
2018-11-26T19:35:50.327Z,4.00
2018-11-26T19:38:18.059Z,4.00
2018-11-26T19:40:45.837Z,3.90
2018-11-26T19:43:13.619Z,3.80
2018-11-26T19:45:41.450Z,3.80
2018-11-26T19:48:09.399Z,3.60
2018-11-26T19:50:37.736Z,3.70
2018-11-26T19:53:08.337Z,3.70
2018-11-26T19:55:36.152Z,3.70
2018-11-26T19:58:05.030Z,3.70
2018-11-26T20:00:32.849Z,3.70
2018-11-26T20:03:15.152Z,3.70
2018-11-26T20:06:06.265Z,3.70
2018-11-26T20:08:34.029Z,3.60
2018-11-26T20:11:01.788Z,3.60
2018-11-26T20:13:29.573Z,3.60
2018-11-26T20:15:57.367Z,3.50
2018-11-26T20:18:28.485Z,3.50
2018-11-26T20:20:52.876Z,3.60
2018-11-26T20:23:20.671Z,3.70
2018-11-26T20:25:48.389Z,3.70
2018-11-26T20:28:16.120Z,3.70
2018-11-26T20:30:43.980Z,3.70
2018-11-26T20:33:11.684Z,3.60
2018-11-26T20:35:39.425Z,3.60
2018-11-26T20:38:08.544Z,3.50
2018-11-26T20:40:36.273Z,3.60
2018-11-26T20:43:04.863Z,3.60
2018-11-26T20:45:32.595Z,3.60
2018-11-26T20:50:34.723Z,3.50
2018-11-26T20:53:02.437Z,3.60
2018-11-26T20:55:30.150Z,3.50
2018-11-26T20:57:57.907Z,3.50
2018-11-26T21:00:27.255Z,3.50
2018-11-26T21:03:13.152Z,3.50
2018-11-26T21:05:41.433Z,3.50
2018-11-26T21:08:09.227Z,3.50
2018-11-26T21:10:37.064Z,3.50
2018-11-26T21:13:04.955Z,3.50
2018-11-26T21:15:32.775Z,3.50
2018-11-26T21:18:02.926Z,3.50
2018-11-26T21:20:34.586Z,3.50
2018-11-26T21:23:03.167Z,3.70
2018-11-26T21:25:30.915Z,3.60
2018-11-26T21:27:58.726Z,3.60
2018-11-26T21:30:26.528Z,3.70
2018-11-26T21:32:54.288Z,3.70
2018-11-26T21:35:22.066Z,3.70
2018-11-26T21:37:51.072Z,3.80
2018-11-26T21:40:23.148Z,3.80
2018-11-26T21:42:50.964Z,3.80
2018-11-26T21:45:22.287Z,3.80
2018-11-26T21:47:50.103Z,3.80
2018-11-26T21:50:17.883Z,3.70
2018-11-26T21:52:45.699Z,3.60
2018-11-26T21:55:14.542Z,3.60
2018-11-26T21:57:42.365Z,3.50
2018-11-26T22:00:21.921Z,3.60
2018-11-26T22:02:50.026Z,3.60
2018-11-26T22:05:17.870Z,3.40
2018-11-26T22:07:45.685Z,3.40
2018-11-26T22:10:15.664Z,3.40
2018-11-26T22:12:44.771Z,3.40
2018-11-26T22:15:13.107Z,3.30
2018-11-26T22:17:41.201Z,3.10
2018-11-26T22:20:18.691Z,3.10
2018-11-26T22:22:46.327Z,3.10
2018-11-26T22:25:14.191Z,3.00
2018-11-26T22:27:42.014Z,3.00
2018-11-26T22:30:12.502Z,3.00
2018-11-26T22:32:40.297Z,2.90
2018-11-26T22:35:08.396Z,3.00
2018-11-26T22:37:36.197Z,2.90
2018-11-26T22:40:05.571Z,2.90
2018-11-26T22:42:33.300Z,3.00
2018-11-26T22:45:01.067Z,3.00
2018-11-26T22:47:28.796Z,3.00
2018-11-26T22:49:56.547Z,3.10
2018-11-26T22:52:24.291Z,3.00
2018-11-26T22:54:52.028Z,3.10
2018-11-26T22:57:19.779Z,3.10
2018-11-26T22:59:47.531Z,3.10
2018-11-26T23:02:15.338Z,3.10
2018-11-26T23:04:43.048Z,3.20
2018-11-26T23:07:10.856Z,3.20
2018-11-26T23:09:38.623Z,3.20
2018-11-26T23:12:06.405Z,3.10
2018-11-26T23:14:34.147Z,3.10
2018-11-26T23:17:01.932Z,3.10
2018-11-26T23:19:29.704Z,3.00
2018-11-26T23:21:57.446Z,3.00
2018-11-26T23:24:25.159Z,3.00
2018-11-26T23:26:52.939Z,3.00
2018-11-26T23:29:20.681Z,2.90
2018-11-26T23:31:48.427Z,3.00
2018-11-26T23:34:16.123Z,2.90
2018-11-26T23:36:43.884Z,2.90
2018-11-26T23:39:11.622Z,3.00
2018-11-26T23:41:39.380Z,3.00
2018-11-26T23:44:07.164Z,3.00
2018-11-26T23:46:34.883Z,3.00
2018-11-26T23:49:02.654Z,3.00
2018-11-26T23:51:30.361Z,3.00
2018-11-26T23:53:58.082Z,3.00
2018-11-26T23:56:25.855Z,3.00
2018-11-26T23:58:53.584Z,3.00
